Portada
METAR-TAF:

METAR-TAF

Aeroports :

Huntsville, Alabama, Estats Units d'Amèrica

latitud: 34-51-41N, longitud: 086-33-26W, altitud: 230 m

Observació

L'informe es va fer fa 35 minuts, a les 06:30 UTC
Vent 9 kt del Sud
Temperatura 15°C
Humitat 44%
Pressió 1017 hPa
Visibilitat: 16.1 km
Cel clar

METAR: KMDQ 220630Z AUTO 17009KT 10SM CLR 15/03 A3002 RMK A02 T01510031

Hora: 01:05 (07:05 UTC)


TAF: manca

Observacions i pronòstics meteorològics de més de 4000 aeroports (METAR i TAF).

Les estacions disponibles són els punts grocs i vermells al mapa.

Posi el ratolí al punt desitjat per veure el nom de l'estació.

Feu clic per veure les observacions i els pronòstics meteorològics.

Per canviar el mapa: feu clic els botons verds amb una creu de color negre per apropar; al botó verd amb un guió per allunyar la imatge; o en les fletxes verdes per a mapes adjacents.


METAR-TAF: